Terminal Aerodrome Forecast
Issued by NWS

Home | Current Version | Previous Version | Text Only | Print | Product List | Glossary On
Versions: 1 2 3 4 5 6 7 8 9 10 11 12 13 14 15 16 17 18 19 20 21 22 23 24 25
000
FTUS46 KOTX 171405 AAA
TAFSFF
TAF AMD
KSFF 171405Z 1714/1812 VRB04KT 5SM BR BKN005 BKN250
     FM171500 13003KT 2SM BR OVC007
     FM172100 VRB03KT P6SM VCSH SCT012 OVC060
     FM180100 15003KT 6SM BR VCSH SCT015 OVC025
     FM180400 20003KT 3SM -FZRA BR OVC007=

USA.gov is the U.S. government's official web portal to all federal, state and local government web resources and services.